Time;durP1;ratioP1;P1;durP2;ratioP2;P2;SDS_P1;SDS_P2;PMS_P1;PMS_P2;Temp;Humidity;BMP_temperature;BMP_pressure;BME280_temperature;BME280_humidity;BME280_pressure;Samples;Min_cycle;Max_cycle;Signal;HPM_P1;HPM_P2
2022/11/14 00:00:58;;;;;;;16.52;9.90;;;;;;;6.65;77.38;99486.53;5990506;23;20539;-89
2022/11/14 00:03:43;;;;;;;14.98;10.60;;;;;;;6.60;78.02;99484.13;5981430;23;20485;-88
2022/11/14 00:06:32;;;;;;;12.10;10.20;;;;;;;6.56;78.18;99469.56;5980419;23;20182;-88
2022/11/14 00:09:19;;;;;;;16.48;9.20;;;;;;;6.56;78.46;99461.75;5983500;23;20366;-88
2022/11/14 00:12:04;;;;;;;15.10;8.05;;;;;;;6.57;78.22;99449.53;5982080;23;20343;-90
2022/11/14 00:14:50;;;;;;;22.45;9.40;;;;;;;6.58;78.32;99448.59;5983267;23;20219;-89
2022/11/14 00:17:42;;;;;;;12.30;9.35;;;;;;;6.60;78.15;99457.19;5964897;23;20591;-89
2022/11/14 00:20:26;;;;;;;15.85;10.75;;;;;;;6.61;78.18;99461.50;5983419;23;20391;-89
2022/11/14 00:23:13;;;;;;;11.50;8.55;;;;;;;6.62;78.05;99455.38;5988865;23;20196;-90
2022/11/14 00:25:57;;;;;;;14.77;8.25;;;;;;;6.58;78.23;99457.25;5998413;23;20591;-89
2022/11/14 00:28:41;;;;;;;17.67;9.55;;;;;;;6.56;78.06;99450.44;6047773;23;20624;-88
2022/11/14 00:31:25;;;;;;;17.27;9.63;;;;;;;6.50;78.52;99448.13;6045449;23;20174;-90
2022/11/14 00:34:18;;;;;;;13.57;8.93;;;;;;;6.49;78.43;99444.69;6044374;23;20502;-89
2022/11/14 00:37:03;;;;;;;26.83;8.70;;;;;;;6.48;78.55;99455.19;6043733;23;20711;-89
2022/11/14 00:39:53;;;;;;;13.18;9.48;;;;;;;6.45;78.69;99448.34;6047583;23;20178;-88
2022/11/14 00:42:37;;;;;;;14.93;9.43;;;;;;;6.43;78.24;99445.84;6042322;23;20223;-89
2022/11/14 00:45:29;;;;;;;16.15;9.55;;;;;;;6.42;78.76;99430.25;6040557;23;20232;-89
2022/11/14 00:48:14;;;;;;;17.15;9.63;;;;;;;6.40;78.88;99430.34;6041222;23;20601;-89
2022/11/14 00:50:58;;;;;;;16.50;8.50;;;;;;;6.39;78.74;99428.63;6040762;23;20228;-90
2022/11/14 00:53:45;;;;;;;18.50;11.35;;;;;;;6.40;78.48;99430.34;6040899;23;20175;-89
2022/11/14 00:56:29;;;;;;;12.80;8.98;;;;;;;6.43;78.73;99427.56;6040734;23;20180;-89
2022/11/14 00:59:14;;;;;;;17.70;10.73;;;;;;;6.47;78.67;99424.81;6039032;23;20685;-89
2022/11/14 01:02:00;;;;;;;18.17;10.45;;;;;;;6.49;78.63;99426.41;6046178;23;20205;-89
2022/11/14 01:04:44;;;;;;;13.85;9.23;;;;;;;6.48;78.56;99424.75;6044902;23;20196;-90
2022/11/14 01:07:31;;;;;;;15.50;9.45;;;;;;;6.47;78.77;99422.19;6048625;23;20252;-89
2022/11/14 01:10:19;;;;;;;12.77;9.52;;;;;;;6.46;78.89;99418.75;6047886;23;20213;-89
2022/11/14 01:13:07;;;;;;;18.65;11.23;;;;;;;6.49;78.75;99429.03;6046341;23;20260;-91
2022/11/14 01:16:01;;;;;;;;;;;;;;;;;;;;;
2022/11/14 01:18:46;;;;;;;17.00;9.05;;;;;;;6.46;78.60;99425.75;6046016;23;20204;-90
2022/11/14 01:21:30;;;;;;;22.17;9.07;;;;;;;6.43;78.85;99418.91;6046330;23;20756;-89
2022/11/14 01:24:15;;;;;;;13.73;9.70;;;;;;;6.40;78.91;99412.06;6046090;23;20587;-88
2022/11/14 01:27:06;;;;;;;20.58;9.45;;;;;;;6.37;78.88;99404.41;6046477;23;20179;-91
2022/11/14 01:29:52;;;;;;;15.90;8.63;;;;;;;6.33;78.83;99395.03;6045801;23;20180;-89
2022/11/14 01:32:39;;;;;;;16.17;8.45;;;;;;;6.29;79.00;99403.06;6046136;23;20712;-89
2022/11/14 01:35:23;;;;;;;33.90;13.50;;;;;;;6.29;79.43;99390.03;6044869;23;20897;-89
2022/11/14 01:38:12;;;;;;;46.33;12.27;;;;;;;6.30;79.45;99384.75;6045573;23;20447;-90
2022/11/14 01:40:58;;;;;;;13.55;8.55;;;;;;;6.32;79.98;99387.25;6046668;23;20900;-90
2022/11/14 01:43:43;;;;;;;22.45;10.48;;;;;;;6.34;79.52;99378.44;6046974;23;20180;-90
2022/11/14 01:46:37;;;;;;;56.42;14.25;;;;;;;6.25;78.97;99389.34;6046386;23;20331;-89
2022/11/14 01:49:26;;;;;;;60.80;10.32;;;;;;;6.18;79.01;99385.34;6046160;23;20174;-89
2022/11/14 01:52:35;;;;;;;41.33;11.95;;;;;;;6.14;79.69;99384.66;6047066;23;20670;-90
2022/11/14 01:55:26;;;;;;;27.70;10.70;;;;;;;6.13;79.25;99376.91;6045692;23;20184;-89
2022/11/14 01:58:14;;;;;;;37.88;12.15;;;;;;;6.12;79.57;99365.63;6046678;23;20208;-89
2022/11/14 02:00:58;;;;;;;35.97;11.63;;;;;;;6.07;79.78;99357.19;6047347;23;20469;-90
2022/11/14 02:03:46;;;;;;;20.73;7.60;;;;;;;6.07;79.88;99353.72;6051196;23;20176;-88
2022/11/14 02:06:33;;;;;;;53.08;12.60;;;;;;;6.07;79.78;99353.72;6048053;23;20228;-89
2022/11/14 02:09:37;;;;;;;16.15;8.65;;;;;;;6.05;79.46;99366.88;6045608;23;20188;-89
2022/11/14 02:12:22;;;;;;;59.33;13.73;;;;;;;5.97;79.92;99359.41;6045591;23;20186;-88
2022/11/14 02:15:08;;;;;;;32.38;9.48;;;;;;;5.97;79.85;99346.38;6045003;23;21028;-89
2022/11/14 02:17:54;;;;;;;19.63;7.85;;;;;;;5.95;79.76;99349.97;6046090;23;20211;-89
2022/11/14 02:20:42;;;;;;;42.67;9.27;;;;;;;5.90;79.95;99344.94;6046387;23;20204;-90
2022/11/14 02:23:30;;;;;;;29.92;8.57;;;;;;;5.90;80.24;99337.13;6046369;23;20180;-89
2022/11/14 02:26:31;;;;;;;42.35;11.55;;;;;;;5.91;80.14;99335.34;5957539;23;20278;-90
2022/11/14 02:29:20;;;;;;;52.33;8.73;;;;;;;5.92;79.86;99331.84;5985520;23;20196;-89
2022/11/14 02:32:08;;;;;;;20.65;8.40;;;;;;;5.91;79.73;99328.41;5985824;23;20211;-90
2022/11/14 02:34:52;;;;;;;27.38;13.20;;;;;;;5.94;79.71;99327.41;5941663;24;21063;-90
2022/11/14 02:37:37;;;;;;;41.72;13.23;;;;;;;5.94;80.17;99320.47;5957357;24;20415;-88
2022/11/14 02:40:21;;;;;;;30.33;9.52;;;;;;;5.94;80.32;99323.06;5957034;24;20432;-89
2022/11/14 02:43:06;;;;;;;13.05;8.18;;;;;;;5.95;80.27;99322.13;5959141;24;20399;-88
2022/11/14 02:45:51;;;;;;;34.58;12.10;;;;;;;5.97;80.32;99320.31;5964231;23;20246;-91
2022/11/14 02:48:35;;;;;;;15.35;9.35;;;;;;;6.01;79.95;99326.19;5785341;24;20233;-91
2022/11/14 02:51:19;;;;;;;63.40;12.40;;;;;;;5.96;80.22;99323.81;5849313;24;20203;-89
2022/11/14 02:54:13;;;;;;;48.95;11.60;;;;;;;5.90;80.24;99318.88;5851014;24;20285;-90
2022/11/14 02:56:57;;;;;;;57.75;12.23;;;;;;;5.86;80.28;99314.75;5838568;24;20558;-90
2022/11/14 02:59:42;;;;;;;70.68;13.70;;;;;;;5.78;80.50;99316.88;5798175;24;20699;-89
2022/11/14 03:02:26;;;;;;;31.20;11.15;;;;;;;5.76;80.19;99323.94;5797267;24;20658;-90
2022/11/14 03:05:10;;;;;;;28.60;10.13;;;;;;;5.72;80.59;99325.81;5802087;24;20903;-90
2022/11/14 03:08:00;;;;;;;36.92;9.98;;;;;;;5.75;80.81;99330.03;5814171;24;20330;-90
2022/11/14 03:10:44;;;;;;;17.15;8.90;;;;;;;5.74;80.66;99321.38;5824146;24;20347;-91
2022/11/14 03:13:31;;;;;;;20.35;9.73;;;;;;;5.77;80.85;99325.59;5839721;24;21056;-89
2022/11/14 03:16:15;;;;;;;16.65;8.02;;;;;;;5.83;80.86;99334.88;5852600;24;20201;-90
2022/11/14 03:18:59;;;;;;;13.13;6.93;;;;;;;5.84;80.34;99329.63;5856908;24;21017;-89
2022/11/14 03:21:49;;;;;;;13.60;7.78;;;;;;;5.84;80.26;99334.81;5904322;24;20193;-90
2022/11/14 03:24:33;;;;;;;18.63;7.63;;;;;;;5.87;80.20;99328.63;5904347;24;20214;-90
2022/11/14 03:27:19;;;;;;;13.65;7.10;;;;;;;5.85;80.71;99333.06;6009328;23;20252;-91
2022/11/14 03:30:04;;;;;;;18.60;6.57;;;;;;;5.84;80.15;99329.63;6003655;23;20622;-91
2022/11/14 03:32:48;;;;;;;13.13;5.70;;;;;;;5.80;80.27;99330.66;6000874;23;20223;-90
2022/11/14 03:35:33;;;;;;;21.92;9.52;;;;;;;5.77;80.41;99325.59;6015238;23;20382;-90
2022/11/14 03:38:25;;;;;;;15.60;6.18;;;;;;;5.79;80.49;99325.53;6015939;23;20235;-90
2022/11/14 03:41:17;;;;;;;14.48;7.15;;;;;;;5.75;80.39;99322.22;6014893;23;20192;-90
2022/11/14 03:44:01;;;;;;;21.60;7.75;;;;;;;5.75;80.88;99325.69;6015357;23;20219;-91
2022/11/14 03:46:48;;;;;;;25.65;7.28;;;;;;;5.74;80.56;99331.81;6015671;23;20264;-91
2022/11/14 03:49:43;;;;;;;11.52;4.28;;;;;;;5.74;80.47;99315.34;6012792;23;20304;-90
2022/11/14 03:52:30;;;;;;;10.35;7.32;;;;;;;5.68;80.61;99310.44;5990527;23;20304;-90
2022/11/14 03:55:15;;;;;;;14.63;6.93;;;;;;;5.68;80.96;99315.63;5983768;23;20179;-91
2022/11/14 03:57:59;;;;;;;13.60;5.70;;;;;;;5.68;81.00;99310.44;5984071;23;20203;-90
2022/11/14 04:00:44;;;;;;;15.05;6.05;;;;;;;5.69;81.04;99301.69;5982768;23;20744;-89
2022/11/14 04:03:28;;;;;;;20.30;6.65;;;;;;;5.71;80.65;99302.47;5986635;23;20175;-90
2022/11/14 04:06:14;;;;;;;11.85;5.63;;;;;;;5.70;80.44;99304.22;6042584;23;20222;-89
2022/11/14 04:09:00;;;;;;;17.30;6.00;;;;;;;5.69;80.61;99292.09;6041235;23;20192;-90
2022/11/14 04:11:45;;;;;;;42.90;7.40;;;;;;;5.70;80.67;99288.59;6041225;23;20514;-90
2022/11/14 04:14:29;;;;;;;23.45;7.82;;;;;;;5.70;80.39;99292.97;6058769;23;20222;-91
2022/11/14 04:17:24;;;;;;;17.23;7.47;;;;;;;5.67;80.47;99298.28;6070099;23;20683;-89
2022/11/14 04:20:11;;;;;;;31.35;9.10;;;;;;;5.69;80.54;99302.53;6073264;23;20263;-91
2022/11/14 04:22:58;;;;;;;9.30;6.78;;;;;;;5.72;80.37;99298.91;6073738;23;20220;-90
2022/11/14 04:25:49;;;;;;;16.45;5.68;;;;;;;5.75;80.52;99306.59;6073035;23;20365;-90
2022/11/14 04:28:33;;;;;;;22.27;7.53;;;;;;;5.77;80.19;99289.13;6071204;23;20672;-90
2022/11/14 04:31:19;;;;;;;16.45;8.30;;;;;;;5.78;80.81;99301.25;6017530;23;20241;-90
2022/11/14 04:34:03;;;;;;;20.60;7.50;;;;;;;5.81;80.33;99305.47;6018224;23;20275;-91
2022/11/14 04:36:55;;;;;;;36.38;8.80;;;;;;;5.81;80.37;99295.88;6012207;23;20327;-92
2022/11/14 04:39:47;;;;;;;30.88;8.25;;;;;;;5.84;80.57;99300.94;6014170;23;20640;-90
2022/11/14 04:42:31;;;;;;;55.08;9.32;;;;;;;5.85;79.98;99302.63;5995022;23;20283;-90
2022/11/14 04:45:18;;;;;;;38.65;9.25;;;;;;;5.84;80.33;99300.94;5970363;23;20624;-90
2022/11/14 04:48:03;;;;;;;35.78;10.65;;;;;;;5.79;79.85;99296.88;6010742;23;20349;-90
2022/11/14 04:50:49;;;;;;;40.78;9.15;;;;;;;5.74;80.31;99297.94;6010797;23;20229;-90
2022/11/14 04:53:37;;;;;;;13.35;7.60;;;;;;;5.77;80.59;99294.34;6010984;23;20679;-90
2022/11/14 04:56:32;;;;;;;;;;;;;;;;;;;;;
2022/11/14 04:59:19;;;;;;;28.88;8.35;;;;;;;5.80;80.38;99290.72;6011254;23;20977;-91
2022/11/14 05:02:08;;;;;;;20.45;8.40;;;;;;;5.80;80.26;99283.75;6010467;23;20692;-89
2022/11/14 05:04:54;;;;;;;24.02;11.32;;;;;;;5.84;80.50;99268.81;5966359;23;20433;-89
2022/11/14 05:07:44;;;;;;;15.40;7.60;;;;;;;5.86;81.00;99282.59;5963802;23;20196;-90
2022/11/14 05:10:34;;;;;;;15.38;8.55;;;;;;;5.90;80.69;99278.94;6011993;23;20257;-90
2022/11/14 05:13:18;;;;;;;41.60;10.43;;;;;;;5.90;80.77;99274.56;6011013;23;20874;-90
2022/11/14 05:16:03;;;;;;;49.97;10.23;;;;;;;5.92;80.51;99267.53;6011268;23;20185;-91
2022/11/14 05:18:47;;;;;;;29.55;10.15;;;;;;;5.93;80.44;99263.13;6010592;23;20376;-91
2022/11/14 05:21:31;;;;;;;36.40;9.60;;;;;;;5.93;80.70;99271.84;6010456;23;20264;-90
2022/11/14 05:24:15;;;;;;;22.10;9.45;;;;;;;5.95;80.81;99264.78;6009327;23;20244;-90
2022/11/14 05:26:59;;;;;;;37.65;9.25;;;;;;;5.98;80.22;99264.63;6010006;23;20401;-91
2022/11/14 05:29:43;;;;;;;47.78;10.52;;;;;;;5.97;80.39;99260.34;6008614;23;20173;-90
2022/11/14 05:32:30;;;;;;;44.13;11.30;;;;;;;5.95;80.49;99262.19;6008912;23;20672;-90
2022/11/14 05:35:24;;;;;;;23.15;11.20;;;;;;;5.93;80.24;99258.81;6020803;23;20525;-90
2022/11/14 05:38:08;;;;;;;48.22;11.45;;;;;;;5.95;80.22;99264.78;6070037;23;20257;-88
2022/11/14 05:40:52;;;;;;;27.08;12.20;;;;;;;5.95;80.57;99258.72;6070094;23;20237;-87
2022/11/14 05:43:36;;;;;;;38.22;9.13;;;;;;;5.94;80.48;99260.50;6070148;23;20365;-87
2022/11/14 05:46:21;;;;;;;36.95;9.25;;;;;;;5.89;80.41;99262.47;6069656;23;20263;-88
2022/11/14 05:49:05;;;;;;;22.08;9.13;;;;;;;5.85;80.44;99253.09;6069117;23;20623;-87
2022/11/14 05:51:50;;;;;;;21.27;9.90;;;;;;;5.84;80.78;99261.84;6070776;23;20210;-88
2022/11/14 05:54:34;;;;;;;31.77;11.13;;;;;;;5.87;80.94;99250.44;6070469;23;20174;-88
2022/11/14 05:57:18;;;;;;;24.48;11.55;;;;;;;5.90;80.62;99252.88;6068575;23;20242;-87
2022/11/14 06:00:03;;;;;;;20.50;9.90;;;;;;;5.89;80.63;99248.59;6071283;23;20230;-87
2022/11/14 06:02:51;;;;;;;16.38;10.82;;;;;;;5.91;80.56;99252.81;6070540;23;20206;-87
2022/11/14 06:05:36;;;;;;;34.00;10.52;;;;;;;5.93;80.94;99250.97;6071030;23;20192;-87
2022/11/14 06:08:20;;;;;;;10.60;7.75;;;;;;;5.92;80.84;99261.47;6070809;23;20174;-88
2022/11/14 06:11:09;;;;;;;22.35;11.20;;;;;;;5.90;80.90;99255.47;6069770;23;20556;-87
2022/11/14 06:13:54;;;;;;;18.52;10.45;;;;;;;5.93;80.94;99265.75;6069280;23;20433;-88
2022/11/14 06:16:38;;;;;;;18.95;10.70;;;;;;;5.96;80.78;99249.97;6078101;23;20493;-86
2022/11/14 06:19:21;;;;;;;12.25;8.65;;;;;;;5.91;80.98;99260.63;6070757;23;20206;-87
2022/11/14 06:22:05;;;;;;;9.95;6.93;;;;;;;5.91;81.07;99255.41;6071083;23;20238;-87
2022/11/14 06:24:49;;;;;;;16.48;11.05;;;;;;;5.92;81.09;99245.81;6069810;23;20315;-88
2022/11/14 06:27:34;;;;;;;16.88;9.18;;;;;;;5.94;80.91;99244.00;6069826;23;20337;-88
2022/11/14 06:30:18;;;;;;;12.63;8.00;;;;;;;5.98;81.21;99241.16;6069655;23;20183;-88
2022/11/14 06:33:02;;;;;;;13.30;8.85;;;;;;;6.01;80.47;99231.50;6014287;23;20220;-88
2022/11/14 06:35:46;;;;;;;11.82;7.53;;;;;;;6.00;80.87;99237.66;6030824;23;20623;-88
2022/11/14 06:38:32;;;;;;;15.13;8.30;;;;;;;6.04;81.02;99241.78;6041668;23;20228;-86
2022/11/14 06:41:19;;;;;;;11.60;7.70;;;;;;;6.02;81.05;99233.19;6040152;23;20180;-87
2022/11/14 06:44:07;;;;;;;12.05;8.05;;;;;;;6.01;80.89;99247.16;6040154;23;20414;-87
2022/11/14 06:46:50;;;;;;;12.90;8.82;;;;;;;6.04;80.61;99253.03;6041023;23;20597;-88
2022/11/14 06:49:34;;;;;;;37.60;14.48;;;;;;;6.09;80.85;99253.66;6041876;23;20301;-88
2022/11/14 06:52:19;;;;;;;12.80;8.13;;;;;;;6.11;80.44;99243.16;6041006;23;20179;-88
2022/11/14 06:55:03;;;;;;;10.18;7.18;;;;;;;6.10;80.41;99247.53;6041278;23;20989;-88
2022/11/14 06:57:52;;;;;;;12.02;7.53;;;;;;;6.14;80.77;99251.66;6038985;23;20227;-88
2022/11/14 07:00:36;;;;;;;14.98;7.47;;;;;;;6.15;80.48;99258.56;6039052;23;20179;-88
2022/11/14 07:03:20;;;;;;;159.68;47.80;;;;;;;6.16;80.50;99262.03;6036881;23;20752;-88
2022/11/14 07:06:08;;;;;;;65.85;26.58;;;;;;;6.18;80.31;99265.38;6041133;23;20663;-88
2022/11/14 07:08:53;;;;;;;74.07;29.90;;;;;;;6.20;80.33;99268.75;6041521;23;20333;-88
2022/11/14 07:11:37;;;;;;;17.52;9.02;;;;;;;6.22;80.36;99256.50;6042166;23;20231;-88
2022/11/14 07:14:22;;;;;;;83.95;26.92;;;;;;;6.27;80.61;99266.69;6044848;23;20699;-88
2022/11/14 07:17:05;;;;;;;28.88;13.88;;;;;;;6.32;80.36;99275.97;6042154;23;20175;-88
2022/11/14 07:19:49;;;;;;;42.47;18.42;;;;;;;6.37;80.33;99258.31;6041293;23;20175;-87
2022/11/14 07:22:33;;;;;;;34.28;15.65;;;;;;;6.39;80.02;99253.84;6042323;23;20180;-88
2022/11/14 07:25:19;;;;;;;56.10;26.30;;;;;;;6.41;80.20;99272.03;6042549;23;20215;-88
2022/11/14 07:28:04;;;;;;;45.00;23.20;;;;;;;6.43;80.33;99257.16;6044436;23;20181;-87
2022/11/14 07:30:48;;;;;;;36.45;17.67;;;;;;;6.41;80.40;99259.81;6042633;23;20175;-88
2022/11/14 07:33:32;;;;;;;32.60;16.90;;;;;;;6.43;80.26;99275.41;6042639;23;21042;-88
2022/11/14 07:36:17;;;;;;;44.55;24.80;;;;;;;6.49;80.48;99258.59;6040937;23;20272;-87
2022/11/14 07:39:04;;;;;;;30.13;17.65;;;;;;;6.54;80.20;99259.19;6041167;23;20252;-88
2022/11/14 07:41:48;;;;;;;48.53;23.95;;;;;;;6.57;80.31;99269.47;6040959;23;20174;-88
2022/11/14 07:44:31;;;;;;;58.20;30.17;;;;;;;6.62;79.85;99272.69;6040570;23;20176;-88
2022/11/14 07:47:15;;;;;;;24.45;12.70;;;;;;;6.65;80.10;99269.91;6040770;23;20462;-87
2022/11/14 07:49:59;;;;;;;19.38;12.73;;;;;;;6.65;80.13;99278.56;6040230;23;20577;-88
2022/11/14 07:52:49;;;;;;;14.82;11.02;;;;;;;6.67;79.76;99255.03;6040612;23;20649;-88
2022/11/14 07:55:37;;;;;;;22.08;14.25;;;;;;;6.71;79.88;99264.34;6040713;23;20272;-87
2022/11/14 07:58:22;;;;;;;26.23;14.93;;;;;;;6.74;79.73;99269.41;6020197;23;20206;-88
2022/11/14 08:01:09;;;;;;;13.95;8.57;;;;;;;6.78;79.54;99257.91;6042668;23;20202;-87
2022/11/14 08:03:53;;;;;;;20.67;11.32;;;;;;;6.81;79.76;99273.38;6039550;23;20228;-87
2022/11/14 08:06:37;;;;;;;17.00;9.80;;;;;;;6.87;79.72;99262.59;6041091;23;20561;-87
2022/11/14 08:09:22;;;;;;;10.77;8.50;;;;;;;6.92;79.21;99266.75;6040951;23;20175;-87
2022/11/14 08:12:06;;;;;;;44.53;18.98;;;;;;;6.98;79.43;99271.63;6040358;23;20200;-88
2022/11/14 08:14:50;;;;;;;14.40;10.02;;;;;;;7.02;79.57;99263.56;6018004;23;20554;-86
2022/11/14 08:17:44;;;;;;;20.33;10.65;;;;;;;7.07;79.13;99261.53;6041124;23;20927;-87
2022/11/14 08:20:28;;;;;;;13.35;9.32;;;;;;;7.15;79.17;99255.03;6040697;23;20224;-88
2022/11/14 08:23:13;;;;;;;18.75;10.50;;;;;;;7.23;79.18;99269.34;6039752;23;20211;-87
2022/11/14 08:25:58;;;;;;;12.30;10.35;;;;;;;7.26;78.58;99248.31;6039661;23;20215;-88
2022/11/14 08:28:42;;;;;;;11.50;8.15;;;;;;;7.29;78.68;99266.41;5989689;23;20209;-88
2022/11/14 08:31:26;;;;;;;12.18;8.90;;;;;;;7.33;78.58;99267.09;6000627;23;20483;-87
2022/11/14 08:34:11;;;;;;;15.27;10.13;;;;;;;7.40;78.50;99250.16;5979324;23;20645;-88
2022/11/14 08:36:56;;;;;;;14.32;10.57;;;;;;;7.46;78.50;99259.41;6000100;23;20626;-89
2022/11/14 08:39:40;;;;;;;16.90;10.27;;;;;;;7.53;78.41;99272.03;5992629;23;20253;-87
2022/11/14 08:42:25;;;;;;;10.07;7.47;;;;;;;7.59;78.34;99255.16;6005955;23;20577;-87
2022/11/14 08:45:09;;;;;;;10.88;8.70;;;;;;;7.65;78.21;99254.81;6010297;23;20179;-87
2022/11/14 08:47:54;;;;;;;9.63;7.15;;;;;;;7.68;78.41;99266.88;6026194;23;20640;-87
2022/11/14 08:50:38;;;;;;;17.25;11.25;;;;;;;7.73;77.98;99268.28;6040470;23;20179;-87
2022/11/14 08:53:22;;;;;;;12.75;8.07;;;;;;;7.79;77.62;99245.34;6037261;23;20251;-87
2022/11/14 08:56:09;;;;;;;18.23;11.70;;;;;;;7.81;77.77;99267.00;6038661;23;20687;-88
2022/11/14 08:58:53;;;;;;;9.88;6.95;;;;;;;7.85;77.63;99260.66;6040720;23;20304;-87
2022/11/14 09:01:37;;;;;;;11.65;7.53;;;;;;;7.88;77.45;99250.84;6039575;23;20979;-87
2022/11/14 09:04:21;;;;;;;11.95;7.93;;;;;;;7.92;77.20;99259.38;6041400;23;20179;-87
2022/11/14 09:07:05;;;;;;;9.73;7.00;;;;;;;7.98;77.24;99249.38;6039716;23;21066;-87
2022/11/14 09:09:52;;;;;;;15.80;9.45;;;;;;;8.04;77.27;99255.19;6040383;23;20275;-88
2022/11/14 09:12:36;;;;;;;12.15;9.63;;;;;;;8.09;77.17;99263.63;6040053;23;20185;-87
2022/11/14 09:15:20;;;;;;;14.43;10.77;;;;;;;8.11;77.12;99267.81;6038118;23;20243;-88
2022/11/14 09:18:04;;;;;;;10.70;8.77;;;;;;;8.17;76.90;99264.84;6039317;23;20204;-87
2022/11/14 09:20:48;;;;;;;15.35;10.10;;;;;;;8.24;76.75;99272.34;6040257;23;20225;-87
2022/11/14 09:23:33;;;;;;;16.25;9.40;;;;;;;8.29;76.64;99272.88;6019875;23;20662;-88
2022/11/14 09:26:19;;;;;;;12.02;9.75;;;;;;;8.35;76.73;99276.00;6040210;23;20191;-88
2022/11/14 09:29:05;;;;;;;9.60;8.35;;;;;;;8.39;76.33;99269.66;6039905;23;20188;-86
2022/11/14 09:31:51;;;;;;;14.45;10.27;;;;;;;8.45;76.20;99272.84;6041520;23;20201;-87
2022/11/14 09:34:36;;;;;;;11.73;8.60;;;;;;;8.49;76.22;99272.59;6040794;23;20180;-87
2022/11/14 09:37:22;;;;;;;9.02;7.00;;;;;;;8.53;76.00;99266.25;6037740;23;20233;-87
2022/11/14 09:40:07;;;;;;;9.70;8.00;;;;;;;8.56;75.67;99262.56;6041041;23;20178;-87
2022/11/14 09:43:10;;;;;;;10.43;7.55;;;;;;;8.52;75.84;99277.63;6037582;23;20196;-88
2022/11/14 09:45:54;;;;;;;11.98;8.80;;;;;;;8.54;76.02;99269.69;6038735;23;20260;-87
2022/11/14 09:48:39;;;;;;;11.02;8.65;;;;;;;8.58;76.01;99276.41;6040909;23;20185;-87
2022/11/14 09:51:32;;;;;;;10.80;6.85;;;;;;;8.58;75.64;99281.66;6042232;23;20180;-88
2022/11/14 09:54:25;;;;;;;12.90;7.90;;;;;;;8.59;75.50;99270.25;6041493;23;20178;-87
2022/11/14 09:57:15;;;;;;;13.52;9.27;;;;;;;8.59;75.59;99297.28;6040005;23;20179;-87
2022/11/14 09:59:59;;;;;;;11.60;7.18;;;;;;;8.59;75.76;99284.19;6038875;23;20180;-87
2022/11/14 10:03:08;;;;;;;11.80;7.78;;;;;;;8.60;75.77;99285.84;6040788;23;20182;-87
2022/11/14 10:06:06;;;;;;;9.57;7.07;;;;;;;8.62;75.50;99285.78;6039334;23;20261;-87
2022/11/14 10:09:19;;;;;;;11.35;7.88;;;;;;;8.58;75.71;99297.34;6040468;23;20195;-88
2022/11/14 10:12:15;;;;;;;7.68;6.65;;;;;;;8.59;75.76;99292.03;6040438;23;20187;-88
2022/11/14 10:15:30;;;;;;;10.52;6.68;;;;;;;8.59;75.88;99284.19;6040886;23;20218;-88
2022/11/14 10:18:52;;;;;;;7.40;6.32;;;;;;;8.61;75.94;99290.19;6040154;23;20317;-88
2022/11/14 10:22:04;;;;;;;8.63;6.57;;;;;;;8.68;76.09;99281.94;6017889;23;20480;-88
2022/11/14 10:25:18;;;;;;;9.18;6.93;;;;;;;8.74;75.84;99286.78;6038961;23;20220;-87
2022/11/14 10:28:11;;;;;;;10.65;7.13;;;;;;;8.79;76.06;99295.22;6040558;23;20276;-88
2022/11/14 10:31:04;;;;;;;9.77;8.77;;;;;;;8.84;76.23;99287.91;6041631;23;20204;-87
2022/11/14 10:33:55;;;;;;;8.15;6.90;;;;;;;8.92;76.15;99290.91;6039975;23;20655;-88
2022/11/14 10:37:05;;;;;;;11.00;8.23;;;;;;;9.01;76.30;99289.50;6040877;23;20174;-87
2022/11/14 10:39:52;;;;;;;9.60;6.68;;;;;;;9.04;76.51;99284.88;6040511;23;20183;-88
2022/11/14 10:42:40;;;;;;;11.43;9.05;;;;;;;9.08;76.32;99286.41;6041312;23;20235;-87
2022/11/14 10:45:24;;;;;;;8.77;7.60;;;;;;;9.16;76.45;99287.69;6039867;23;20179;-87
2022/11/14 10:48:14;;;;;;;10.13;8.82;;;;;;;9.25;76.23;99290.56;6041364;23;20646;-87
2022/11/14 10:51:07;;;;;;;12.13;8.15;;;;;;;9.37;76.06;99290.72;6040312;23;20212;-87
2022/11/14 10:54:30;;;;;;;10.95;7.50;;;;;;;9.45;75.90;99272.72;6041876;23;20231;-86
2022/11/14 10:57:20;;;;;;;13.77;7.68;;;;;;;9.53;75.83;99287.03;6003493;23;20616;-87
2022/11/14 11:00:18;;;;;;;9.38;8.38;;;;;;;9.64;75.56;99293.34;6040314;23;20181;-88
2022/11/14 11:03:03;;;;;;;11.65;8.05;;;;;;;9.70;75.67;99279.84;6039885;23;20327;-87
2022/11/14 11:05:58;;;;;;;7.63;6.80;;;;;;;9.71;75.80;99273.66;6039023;23;20581;-87
2022/11/14 11:11:57;;;;;;;25.45;12.68;;;;;;;9.80;75.73;99283.53;6040140;23;20178;-87
2022/11/14 11:14:41;;;;;;;11.32;8.00;;;;;;;9.89;75.59;99288.19;6039633;23;20220;-85
2022/11/14 11:17:25;;;;;;;69.60;30.08;;;;;;;10.01;75.51;99285.69;6038830;23;20196;-86
2022/11/14 11:20:33;;;;;;;37.67;19.25;;;;;;;10.11;75.33;99281.53;6050495;23;20701;-87
2022/11/14 11:23:24;;;;;;;17.50;10.45;;;;;;;10.20;75.06;99273.03;6039496;23;20267;-86
2022/11/14 11:26:20;;;;;;;13.70;9.10;;;;;;;10.27;75.05;99271.72;6038651;23;20189;-86
2022/11/14 11:29:10;;;;;;;14.80;8.82;;;;;;;10.38;74.91;99274.44;6040107;23;20199;-86
2022/11/14 11:31:58;;;;;;;12.68;7.13;;;;;;;10.51;74.62;99268.38;6040618;23;20175;-86
2022/11/14 11:34:42;;;;;;;13.80;8.13;;;;;;;10.63;74.25;99260.44;6040310;23;20719;-86
2022/11/14 11:37:58;;;;;;;18.75;12.15;;;;;;;10.75;74.06;99269.28;6038527;23;20182;-87
2022/11/14 11:40:48;;;;;;;12.38;7.80;;;;;;;10.91;73.83;99262.94;6028218;23;20755;-86
2022/11/14 11:43:50;;;;;;;19.83;10.13;;;;;;;11.03;73.61;99265.53;6045227;23;20844;-87
2022/11/14 11:46:43;;;;;;;44.28;20.50;;;;;;;11.11;73.41;99270.25;6039549;23;20283;-87
2022/11/14 11:49:50;;;;;;;34.45;16.83;;;;;;;11.22;73.18;99274.75;6017379;23;20712;-87
2022/11/14 11:53:03;;;;;;;8.35;7.18;;;;;;;11.30;72.96;99265.34;6038694;23;20556;-87
2022/11/14 11:55:51;;;;;;;8.00;7.15;;;;;;;11.37;72.94;99270.16;6039993;23;20631;-87
2022/11/14 11:58:50;;;;;;;11.98;7.25;;;;;;;11.45;72.77;99265.19;6038758;23;20524;-87
2022/11/14 12:01:34;;;;;;;10.30;7.57;;;;;;;11.51;72.74;99270.03;6039435;23;20765;-86
2022/11/14 12:04:18;;;;;;;9.65;7.05;;;;;;;11.55;72.54;99271.47;6039031;23;20193;-87
2022/11/14 12:07:13;;;;;;;7.15;6.45;;;;;;;11.56;72.49;99265.28;6039004;23;20653;-86
2022/11/14 12:10:06;;;;;;;12.10;6.05;;;;;;;11.56;72.74;99275.78;6038988;23;20272;-87
2022/11/14 12:13:00;;;;;;;12.18;7.25;;;;;;;11.55;72.70;99276.72;6039051;23;20236;-86
2022/11/14 12:15:53;;;;;;;8.57;6.32;;;;;;;11.59;72.91;99280.81;6039894;23;20190;-87
2022/11/14 12:18:49;;;;;;;17.98;12.10;;;;;;;11.63;72.85;99284.06;5414091;23;10000901;-87
2022/11/14 12:21:57;;;;;;;15.77;10.07;;;;;;;11.67;72.95;99280.28;6038369;23;20226;-86
2022/11/14 12:25:12;;;;;;;10.98;8.30;;;;;;;11.66;72.90;99273.31;6039061;23;20214;-87
2022/11/14 12:28:09;;;;;;;11.82;7.80;;;;;;;11.65;73.02;99261.94;6038597;23;20171;-88
2022/11/14 12:31:00;;;;;;;8.45;6.70;;;;;;;11.64;73.14;99268.19;6039666;23;20189;-86
2022/11/14 12:34:03;;;;;;;18.70;11.45;;;;;;;11.67;73.02;99270.59;6039475;23;20533;-87
2022/11/14 12:36:47;;;;;;;16.67;7.60;;;;;;;11.68;73.49;99282.78;6039385;23;20176;-89
2022/11/14 12:39:43;;;;;;;9.50;6.35;;;;;;;11.71;73.37;99279.91;6039454;23;20724;-87
2022/11/14 12:42:27;;;;;;;10.10;6.95;;;;;;;11.76;73.49;99276.94;6019792;23;20210;-87
2022/11/14 12:45:39;;;;;;;15.80;9.18;;;;;;;11.80;73.49;99280.19;6039538;23;20175;-87
2022/11/14 12:48:27;;;;;;;10.13;7.70;;;;;;;11.83;73.62;99278.19;6039469;23;20184;-88
2022/11/14 12:51:24;;;;;;;10.27;7.10;;;;;;;11.85;73.60;99278.06;6039218;23;20575;-88
2022/11/14 12:54:47;;;;;;;10.13;7.20;;;;;;;11.87;73.70;99281.44;6038309;23;20260;-88
2022/11/14 12:57:52;;;;;;;8.05;7.18;;;;;;;11.87;73.90;99277.03;6017509;23;20231;-87
2022/11/14 13:00:45;;;;;;;9.18;6.70;;;;;;;11.89;73.77;99283.03;6039566;23;20231;-87
2022/11/14 13:04:03;;;;;;;9.05;7.75;;;;;;;11.91;73.94;99280.28;6039530;23;20461;-87
2022/11/14 13:07:15;;;;;;;11.75;7.50;;;;;;;11.94;73.91;99277.41;6039816;23;20171;-86
2022/11/14 13:10:08;;;;;;;35.08;17.30;;;;;;;11.98;74.17;99280.66;6040671;23;20545;-87
2022/11/14 13:22:41;;;;;;;13.43;7.00;;;;;;;12.13;73.89;99272.44;6039529;23;20212;-86
2022/11/14 13:25:25;;;;;;;12.15;6.47;;;;;;;12.18;73.77;99266.84;6040027;23;20232;-87